Time;durP1;ratioP1;P1;durP2;ratioP2;P2;SDS_P1;SDS_P2;PMS_P1;PMS_P2;Temp;Humidity;BMP_temperature;BMP_pressure;BME280_temperature;BME280_humidity;BME280_pressure;Samples;Min_cycle;Max_cycle;Signal;HPM_P1;HPM_P2
2020/12/27 00:02:44;;;;;;;10.80;5.17;;;;;;;;;;5059430;28;20240;-82
2020/12/27 00:05:49;;;;;;;9.83;4.60;;;;;;;;;;5064248;28;20276;-81
2020/12/27 00:08:54;;;;;;;10.53;4.83;;;;;;;;;;5054801;28;20638;-80
2020/12/27 00:11:59;;;;;;;12.57;4.90;;;;;;;;;;5061541;28;20253;-81
2020/12/27 00:15:04;;;;;;;10.00;4.43;;;;;;;;;;5059796;28;20199;-82
2020/12/27 00:18:09;;;;;;;10.90;4.53;;;;;;;;;;5048997;28;20290;-81
2020/12/27 00:21:14;;;;;;;15.43;5.47;;;;;;;;;;5058439;28;20250;-81
2020/12/27 00:24:18;;;;;;;12.63;4.70;;;;;;;;;;5044116;28;20215;-82
2020/12/27 00:27:23;;;;;;;15.27;5.60;;;;;;;;;;5045188;28;20270;-81
2020/12/27 00:30:29;;;;;;;11.50;5.13;;;;;;;;;;5055724;28;20575;-82
2020/12/27 00:33:34;;;;;;;11.60;4.97;;;;;;;;;;5067218;28;20599;-79
2020/12/27 00:36:39;;;;;;;11.17;4.70;;;;;;;;;;5070084;28;20176;-78
2020/12/27 00:39:44;;;;;;;10.60;4.77;;;;;;;;;;5067916;28;20199;-79
2020/12/27 00:42:49;;;;;;;9.47;4.97;;;;;;;;;;5065890;28;20805;-81
2020/12/27 00:45:54;;;;;;;12.40;4.97;;;;;;;;;;5049654;28;20214;-81
2020/12/27 00:48:59;;;;;;;12.90;4.70;;;;;;;;;;5055215;28;20207;-81
2020/12/27 00:52:04;;;;;;;9.90;4.93;;;;;;;;;;5052773;28;20232;-82
2020/12/27 00:55:09;;;;;;;12.43;4.17;;;;;;;;;;5059366;28;20219;-81
2020/12/27 00:58:14;;;;;;;11.00;4.60;;;;;;;;;;5053680;28;20211;-81
2020/12/27 01:01:20;;;;;;;10.53;4.87;;;;;;;;;;5060510;28;20250;-82
2020/12/27 01:04:26;;;;;;;9.80;4.10;;;;;;;;;;5053831;28;20215;-82
2020/12/27 01:07:32;;;;;;;7.50;3.70;;;;;;;;;;5054966;28;20210;-80
2020/12/27 01:10:57;;;;;;;10.10;4.43;;;;;;;;;;5058050;28;20240;-82
2020/12/27 01:14:02;;;;;;;8.83;3.87;;;;;;;;;;5056949;28;20765;-81
2020/12/27 01:17:09;;;;;;;10.53;4.20;;;;;;;;;;5059709;28;20207;-80
2020/12/27 01:20:15;;;;;;;12.80;4.53;;;;;;;;;;5051639;28;20287;-81
2020/12/27 01:23:20;;;;;;;11.83;4.63;;;;;;;;;;5055585;28;20207;-80
2020/12/27 01:26:31;;;;;;;11.70;4.83;;;;;;;;;;5054834;28;20302;-79
2020/12/27 01:29:36;;;;;;;12.47;4.47;;;;;;;;;;5051032;28;20315;-81
2020/12/27 01:32:53;;;;;;;8.40;3.80;;;;;;;;;;5043869;28;20244;-82
2020/12/27 01:35:58;;;;;;;7.40;3.60;;;;;;;;;;5055919;28;20218;-81
2020/12/27 01:39:05;;;;;;;9.80;3.70;;;;;;;;;;5054459;28;20219;-81
2020/12/27 01:42:11;;;;;;;8.83;4.00;;;;;;;;;;5059348;28;20253;-81
2020/12/27 01:45:15;;;;;;;9.10;3.80;;;;;;;;;;5055596;28;20229;-80
2020/12/27 01:48:40;;;;;;;10.97;4.23;;;;;;;;;;5068844;28;20210;-82
2020/12/27 01:51:50;;;;;;;9.77;4.47;;;;;;;;;;5060046;28;20279;-82
2020/12/27 01:55:03;;;;;;;8.50;4.17;;;;;;;;;;5043046;28;20231;-80
2020/12/27 01:58:18;;;;;;;10.33;4.97;;;;;;;;;;5063580;28;20215;-82
2020/12/27 02:01:46;;;;;;;8.20;3.87;;;;;;;;;;5046991;28;20219;-81
2020/12/27 02:05:15;;;;;;;9.63;4.30;;;;;;;;;;5047006;28;20207;-81
2020/12/27 02:08:22;;;;;;;12.33;4.13;;;;;;;;;;5043777;28;20710;-79
2020/12/27 02:11:40;;;;;;;12.87;4.57;;;;;;;;;;5045513;28;20240;-82
2020/12/27 02:14:45;;;;;;;10.70;4.40;;;;;;;;;;5054850;28;20215;-80
2020/12/27 02:17:52;;;;;;;10.47;4.67;;;;;;;;;;5055930;28;20211;-81
2020/12/27 02:21:04;;;;;;;8.60;4.47;;;;;;;;;;5050988;28;20223;-82
2020/12/27 02:24:12;;;;;;;8.00;4.10;;;;;;;;;;5057108;28;20583;-82
2020/12/27 02:27:16;;;;;;;10.30;4.57;;;;;;;;;;5056875;28;20248;-82
2020/12/27 02:30:23;;;;;;;9.00;4.23;;;;;;;;;;5057332;28;20728;-81
2020/12/27 02:33:28;;;;;;;8.47;4.13;;;;;;;;;;5054563;28;20262;-82
2020/12/27 02:36:34;;;;;;;7.67;4.27;;;;;;;;;;5060822;28;20238;-82
2020/12/27 02:39:43;;;;;;;9.97;4.57;;;;;;;;;;5057705;28;20226;-79
2020/12/27 02:42:48;;;;;;;10.63;4.53;;;;;;;;;;5061081;28;20724;-80
2020/12/27 02:45:53;;;;;;;11.47;4.50;;;;;;;;;;5051548;28;20222;-81
2020/12/27 02:49:16;;;;;;;6.90;3.77;;;;;;;;;;5048051;28;20254;-81
2020/12/27 02:52:21;;;;;;;10.37;4.20;;;;;;;;;;5040292;28;20304;-81
2020/12/27 02:55:27;;;;;;;8.93;4.10;;;;;;;;;;5061846;28;20196;-81
2020/12/27 02:58:34;;;;;;;7.73;3.60;;;;;;;;;;5050945;28;20208;-80
2020/12/27 03:01:39;;;;;;;7.43;3.80;;;;;;;;;;5058946;28;20250;-79
2020/12/27 03:05:22;;;;;;;8.10;3.63;;;;;;;;;;4984649;28;20726;-80
2020/12/27 03:08:27;;;;;;;8.50;3.80;;;;;;;;;;4974489;28;20205;-82
2020/12/27 03:11:45;;;;;;;10.60;4.00;;;;;;;;;;5041574;28;20738;-81
2020/12/27 03:14:51;;;;;;;7.23;3.33;;;;;;;;;;5055519;28;20198;-80
2020/12/27 03:18:27;;;;;;;8.97;3.90;;;;;;;;;;5057227;28;20671;-79
2020/12/27 03:21:50;;;;;;;7.53;3.80;;;;;;;;;;5066208;28;20205;-79
2020/12/27 03:25:18;;;;;;;10.47;4.40;;;;;;;;;;5061781;28;20209;-82
2020/12/27 03:28:25;;;;;;;7.50;3.57;;;;;;;;;;5059493;28;20287;-81
2020/12/27 03:31:36;;;;;;;9.70;4.10;;;;;;;;;;5064297;28;20599;-80
2020/12/27 03:34:46;;;;;;;9.43;4.30;;;;;;;;;;5073839;28;20263;-78
2020/12/27 03:37:51;;;;;;;9.53;4.00;;;;;;;;;;5062409;28;20210;-79
2020/12/27 03:41:13;;;;;;;11.00;4.60;;;;;;;;;;5055798;28;20223;-79
2020/12/27 03:44:33;;;;;;;10.13;4.37;;;;;;;;;;5065680;28;20198;-78
2020/12/27 03:47:58;;;;;;;9.33;4.30;;;;;;;;;;5053030;28;20211;-81
2020/12/27 03:51:21;;;;;;;10.00;4.53;;;;;;;;;;5063988;28;20255;-81
2020/12/27 03:54:26;;;;;;;8.30;4.00;;;;;;;;;;5059019;28;20215;-82
2020/12/27 03:58:07;;;;;;;6.57;3.53;;;;;;;;;;5028601;28;20212;-80
2020/12/27 04:01:24;;;;;;;11.73;4.67;;;;;;;;;;5059579;28;20232;-81
2020/12/27 04:04:30;;;;;;;8.83;4.23;;;;;;;;;;5046420;28;20200;-79
2020/12/27 04:07:35;;;;;;;7.83;3.50;;;;;;;;;;5065130;28;20207;-79
2020/12/27 04:10:40;;;;;;;9.73;4.47;;;;;;;;;;5042851;28;20234;-81
2020/12/27 04:13:45;;;;;;;12.03;4.17;;;;;;;;;;5048695;28;20299;-81
2020/12/27 04:16:54;;;;;;;8.53;4.03;;;;;;;;;;5048402;28;20211;-80
2020/12/27 04:19:59;;;;;;;10.17;4.53;;;;;;;;;;5042324;28;20215;-81
2020/12/27 04:23:08;;;;;;;10.03;4.57;;;;;;;;;;5048473;28;20206;-82
2020/12/27 04:26:14;;;;;;;11.33;4.53;;;;;;;;;;5052180;28;20253;-81
2020/12/27 04:29:21;;;;;;;10.47;4.87;;;;;;;;;;5055413;28;20214;-81
2020/12/27 04:32:32;;;;;;;13.40;4.80;;;;;;;;;;5041532;28;20244;-80
2020/12/27 04:35:47;;;;;;;11.67;4.77;;;;;;;;;;5065514;28;20214;-82
2020/12/27 04:38:51;;;;;;;12.13;5.13;;;;;;;;;;5051961;28;20254;-80
2020/12/27 04:41:56;;;;;;;10.63;4.60;;;;;;;;;;5060072;28;20246;-81
2020/12/27 04:45:13;;;;;;;11.10;4.87;;;;;;;;;;5057533;28;20256;-81
2020/12/27 04:48:38;;;;;;;10.73;4.83;;;;;;;;;;5042466;28;20223;-80
2020/12/27 04:52:19;;;;;;;10.90;5.27;;;;;;;;;;5039960;28;20231;-81
2020/12/27 04:55:45;;;;;;;11.20;5.10;;;;;;;;;;5056339;28;20198;-81
2020/12/27 04:58:57;;;;;;;11.93;5.03;;;;;;;;;;5067068;28;20680;-81
2020/12/27 05:02:04;;;;;;;11.93;5.23;;;;;;;;;;5065022;28;20685;-81
2020/12/27 05:05:16;;;;;;;9.57;4.17;;;;;;;;;;5048702;28;20199;-81
2020/12/27 05:08:24;;;;;;;11.83;4.83;;;;;;;;;;5049096;28;20216;-81
2020/12/27 05:11:34;;;;;;;8.97;4.30;;;;;;;;;;5052114;28;20236;-80
2020/12/27 05:14:53;;;;;;;10.10;4.53;;;;;;;;;;5061486;28;20227;-78
2020/12/27 05:18:02;;;;;;;10.73;4.60;;;;;;;;;;5067136;28;20196;-78
2020/12/27 05:21:13;;;;;;;11.07;5.17;;;;;;;;;;5059422;28;20253;-82
2020/12/27 05:24:18;;;;;;;10.03;4.97;;;;;;;;;;5051708;28;20207;-80
2020/12/27 05:27:43;;;;;;;11.73;5.17;;;;;;;;;;5049455;28;20207;-81
2020/12/27 05:31:12;;;;;;;10.87;5.13;;;;;;;;;;5050397;28;20303;-80
2020/12/27 05:34:36;;;;;;;11.33;4.67;;;;;;;;;;5046438;28;20230;-81
2020/12/27 05:38:01;;;;;;;8.93;5.00;;;;;;;;;;5062625;28;20254;-81
2020/12/27 05:41:26;;;;;;;13.40;5.53;;;;;;;;;;5040468;28;20238;-81
2020/12/27 05:44:37;;;;;;;14.27;5.20;;;;;;;;;;5047647;28;20250;-79
2020/12/27 05:47:46;;;;;;;12.30;5.50;;;;;;;;;;5065689;28;20215;-78
2020/12/27 05:50:52;;;;;;;11.80;5.07;;;;;;;;;;5064229;28;20223;-78
2020/12/27 05:54:00;;;;;;;13.67;6.07;;;;;;;;;;5065778;28;20223;-78
2020/12/27 05:57:23;;;;;;;11.97;4.87;;;;;;;;;;5049921;28;20212;-80
2020/12/27 06:00:29;;;;;;;11.33;4.77;;;;;;;;;;5067896;28;20207;-78
2020/12/27 06:03:56;;;;;;;11.77;5.10;;;;;;;;;;5051880;28;20215;-81
2020/12/27 06:07:07;;;;;;;13.30;5.87;;;;;;;;;;5034256;28;20258;-81
2020/12/27 06:10:23;;;;;;;12.50;5.37;;;;;;;;;;5059688;28;20219;-79
2020/12/27 06:13:50;;;;;;;12.33;5.50;;;;;;;;;;5056036;28;20675;-80
2020/12/27 06:17:12;;;;;;;12.87;5.93;;;;;;;;;;5057380;28;20297;-81
2020/12/27 06:20:44;;;;;;;14.20;5.90;;;;;;;;;;5052025;28;20242;-79
2020/12/27 06:23:54;;;;;;;15.43;6.73;;;;;;;;;;5064793;28;20255;-79
2020/12/27 06:27:02;;;;;;;13.67;5.83;;;;;;;;;;5067269;28;20219;-79
2020/12/27 06:30:09;;;;;;;16.07;6.40;;;;;;;;;;5051896;28;20282;-81
2020/12/27 06:33:32;;;;;;;15.03;6.70;;;;;;;;;;5044478;28;20250;-81
2020/12/27 06:36:41;;;;;;;14.43;6.73;;;;;;;;;;5057034;28;20751;-81
2020/12/27 06:39:56;;;;;;;14.40;6.53;;;;;;;;;;5052985;28;20199;-82
2020/12/27 06:43:17;;;;;;;14.67;6.33;;;;;;;;;;5052686;28;20207;-80
2020/12/27 06:46:27;;;;;;;17.07;6.43;;;;;;;;;;5035033;28;20231;-80
2020/12/27 06:50:14;;;;;;;15.67;6.40;;;;;;;;;;5050893;28;20207;-81
2020/12/27 06:53:34;;;;;;;14.53;6.60;;;;;;;;;;5048748;28;20226;-80
2020/12/27 06:56:52;;;;;;;14.40;6.40;;;;;;;;;;5044548;28;20195;-80
2020/12/27 07:00:19;;;;;;;13.03;5.50;;;;;;;;;;5047599;28;20259;-80
2020/12/27 07:03:25;;;;;;;14.53;6.53;;;;;;;;;;5044758;28;20222;-81
2020/12/27 07:06:29;;;;;;;16.70;6.13;;;;;;;;;;5068347;28;20249;-80
2020/12/27 07:09:37;;;;;;;14.03;5.60;;;;;;;;;;5038845;28;20203;-81
2020/12/27 07:12:42;;;;;;;18.93;6.07;;;;;;;;;;5045086;28;20289;-80
2020/12/27 07:15:48;;;;;;;15.37;6.30;;;;;;;;;;5047595;28;20211;-81
2020/12/27 07:18:53;;;;;;;15.53;6.00;;;;;;;;;;5030313;28;20223;-79
2020/12/27 07:22:04;;;;;;;14.43;6.00;;;;;;;;;;5048914;28;20325;-79
2020/12/27 07:25:13;;;;;;;13.57;5.60;;;;;;;;;;5061238;28;20203;-82
2020/12/27 07:28:18;;;;;;;14.37;5.90;;;;;;;;;;5040142;28;20324;-80
2020/12/27 07:31:24;;;;;;;14.57;5.83;;;;;;;;;;5054639;28;20231;-80
2020/12/27 07:34:29;;;;;;;15.63;5.87;;;;;;;;;;5048157;28;20239;-81
2020/12/27 07:37:34;;;;;;;12.47;5.93;;;;;;;;;;5052615;28;20214;-81
2020/12/27 07:40:41;;;;;;;13.33;5.27;;;;;;;;;;5051487;28;20218;-80
2020/12/27 07:43:46;;;;;;;14.03;6.73;;;;;;;;;;5057102;28;20250;-81
2020/12/27 07:46:52;;;;;;;14.50;6.33;;;;;;;;;;5034097;28;20195;-80
2020/12/27 07:50:07;;;;;;;12.37;5.50;;;;;;;;;;5047672;28;20203;-81
2020/12/27 07:53:16;;;;;;;11.73;5.87;;;;;;;;;;5048161;28;20224;-81
2020/12/27 07:56:22;;;;;;;12.23;5.60;;;;;;;;;;5051692;28;20212;-79
2020/12/27 07:59:27;;;;;;;14.27;5.80;;;;;;;;;;5042691;28;20223;-81
2020/12/27 08:02:33;;;;;;;13.43;6.13;;;;;;;;;;5047235;28;20208;-78
2020/12/27 08:05:39;;;;;;;15.77;6.43;;;;;;;;;;5064106;28;20199;-79
2020/12/27 08:13:06;;;;;;;17.27;6.80;;;;;;;;;;5057483;28;20203;-80
2020/12/27 08:16:11;;;;;;;16.53;7.20;;;;;;;;;;5061759;28;20254;-81
2020/12/27 08:19:18;;;;;;;22.07;9.50;;;;;;;;;;5046062;28;20199;-82
2020/12/27 08:22:23;;;;;;;21.73;8.23;;;;;;;;;;5048337;28;20277;-81
2020/12/27 08:25:29;;;;;;;27.83;11.33;;;;;;;;;;5065694;28;20275;-80
2020/12/27 08:28:35;;;;;;;18.27;7.80;;;;;;;;;;5071132;28;20213;-79
2020/12/27 08:31:40;;;;;;;17.20;7.53;;;;;;;;;;5052141;28;20293;-79
2020/12/27 08:34:46;;;;;;;18.00;6.90;;;;;;;;;;5064539;28;20215;-80
2020/12/27 08:37:54;;;;;;;19.17;7.73;;;;;;;;;;5047758;28;20222;-82
2020/12/27 08:41:10;;;;;;;25.80;9.33;;;;;;;;;;5051755;28;20249;-82
2020/12/27 08:44:24;;;;;;;21.50;8.50;;;;;;;;;;5052504;28;20207;-81
2020/12/27 08:47:40;;;;;;;20.20;8.73;;;;;;;;;;5042829;28;20266;-82
2020/12/27 08:50:48;;;;;;;20.77;8.03;;;;;;;;;;5057893;28;20266;-80
2020/12/27 08:53:54;;;;;;;20.17;8.70;;;;;;;;;;5047435;28;20749;-81
2020/12/27 08:56:59;;;;;;;21.07;8.23;;;;;;;;;;5045253;28;20212;-78
2020/12/27 09:00:08;;;;;;;16.83;7.87;;;;;;;;;;5048849;28;20240;-80
2020/12/27 09:03:13;;;;;;;20.47;7.20;;;;;;;;;;5042901;28;20230;-80
2020/12/27 09:06:19;;;;;;;27.30;10.43;;;;;;;;;;5060554;28;20270;-80
2020/12/27 09:09:24;;;;;;;28.53;10.97;;;;;;;;;;5056682;28;20644;-80
2020/12/27 09:12:28;;;;;;;20.27;9.07;;;;;;;;;;5065721;28;20227;-80
2020/12/27 09:15:44;;;;;;;19.90;8.63;;;;;;;;;;5056412;28;20188;-80
2020/12/27 09:18:50;;;;;;;19.53;7.63;;;;;;;;;;5053372;28;20191;-80
2020/12/27 09:21:56;;;;;;;17.67;8.03;;;;;;;;;;5042681;28;20282;-80
2020/12/27 09:25:04;;;;;;;18.30;8.13;;;;;;;;;;5055412;28;20288;-80
2020/12/27 09:28:13;;;;;;;18.67;8.33;;;;;;;;;;5048636;28;20288;-79
2020/12/27 09:31:23;;;;;;;22.60;7.70;;;;;;;;;;5055818;28;20234;-81
2020/12/27 09:34:28;;;;;;;18.93;7.90;;;;;;;;;;5055333;28;20227;-81
2020/12/27 09:37:45;;;;;;;17.77;7.73;;;;;;;;;;5057300;28;20215;-80
2020/12/27 09:41:02;;;;;;;17.63;8.17;;;;;;;;;;5044660;28;20226;-79
2020/12/27 09:44:07;;;;;;;15.23;7.30;;;;;;;;;;5025515;28;20239;-79
2020/12/27 09:47:21;;;;;;;16.23;7.67;;;;;;;;;;5042522;28;20276;-80
2020/12/27 09:50:27;;;;;;;17.43;7.93;;;;;;;;;;5019583;28;20216;-79
2020/12/27 09:53:33;;;;;;;19.43;8.13;;;;;;;;;;5051721;28;20238;-81
2020/12/27 09:56:41;;;;;;;17.70;7.67;;;;;;;;;;5048512;28;20226;-80
2020/12/27 09:59:46;;;;;;;23.57;7.77;;;;;;;;;;5036974;28;20212;-80
2020/12/27 10:02:51;;;;;;;15.07;7.37;;;;;;;;;;5049041;28;20250;-77
2020/12/27 10:05:56;;;;;;;13.77;6.30;;;;;;;;;;5051584;28;20222;-79
2020/12/27 10:09:02;;;;;;;13.63;6.40;;;;;;;;;;5040439;28;20207;-79
2020/12/27 10:12:06;;;;;;;15.70;6.53;;;;;;;;;;5051618;28;20253;-78
2020/12/27 10:15:12;;;;;;;14.20;6.53;;;;;;;;;;5050540;28;20263;-80
2020/12/27 10:18:16;;;;;;;11.67;5.97;;;;;;;;;;5039805;28;20644;-80
2020/12/27 10:21:21;;;;;;;12.20;5.67;;;;;;;;;;5044311;28;20371;-80
2020/12/27 10:24:28;;;;;;;10.83;5.50;;;;;;;;;;5047469;28;20211;-78
2020/12/27 10:27:34;;;;;;;12.37;5.97;;;;;;;;;;5031861;28;20207;-77
2020/12/27 10:30:39;;;;;;;10.70;4.33;;;;;;;;;;5028068;28;20235;-80
2020/12/27 10:33:44;;;;;;;12.37;5.67;;;;;;;;;;5042613;28;20215;-79
2020/12/27 10:36:49;;;;;;;13.30;5.00;;;;;;;;;;5032972;28;20207;-78
2020/12/27 10:39:55;;;;;;;11.77;4.20;;;;;;;;;;5036351;28;20227;-80
2020/12/27 10:43:00;;;;;;;12.93;4.80;;;;;;;;;;5045828;28;20200;-79
2020/12/27 10:46:05;;;;;;;8.63;4.60;;;;;;;;;;5030752;28;20276;-78
2020/12/27 10:49:10;;;;;;;9.17;4.67;;;;;;;;;;5039844;28;20250;-78
2020/12/27 10:52:15;;;;;;;7.33;3.53;;;;;;;;;;5044122;28;20251;-78
2020/12/27 10:55:20;;;;;;;12.03;5.23;;;;;;;;;;5046501;28;20742;-78
2020/12/27 10:58:25;;;;;;;12.47;5.13;;;;;;;;;;5030399;28;20207;-78
2020/12/27 11:01:31;;;;;;;12.80;4.90;;;;;;;;;;5028981;28;20615;-78
2020/12/27 11:04:36;;;;;;;10.57;4.87;;;;;;;;;;5029719;28;20337;-79
2020/12/27 11:07:41;;;;;;;11.47;4.97;;;;;;;;;;5025661;28;20504;-79
2020/12/27 11:10:47;;;;;;;13.13;4.70;;;;;;;;;;5021341;28;20587;-79
2020/12/27 11:13:52;;;;;;;9.30;4.63;;;;;;;;;;5023150;28;20219;-78
2020/12/27 11:16:56;;;;;;;11.67;3.70;;;;;;;;;;5022467;28;20268;-78
2020/12/27 11:20:01;;;;;;;13.63;5.57;;;;;;;;;;5033137;28;20562;-78
2020/12/27 11:23:07;;;;;;;15.03;5.60;;;;;;;;;;5033850;28;20257;-78
2020/12/27 11:26:17;;;;;;;11.73;3.50;;;;;;;;;;5033351;28;20245;-78
2020/12/27 11:29:22;;;;;;;11.87;4.27;;;;;;;;;;5031692;28;20246;-79
2020/12/27 11:32:28;;;;;;;14.60;9.30;;;;;;;;;;5024211;28;20255;-78
2020/12/27 11:35:33;;;;;;;10.97;6.90;;;;;;;;;;5042591;28;20216;-78
2020/12/27 11:38:38;;;;;;;10.40;6.30;;;;;;;;;;5038648;28;20624;-79
2020/12/27 11:41:43;;;;;;;21.07;4.50;;;;;;;;;;5044117;28;20272;-78
2020/12/27 11:44:48;;;;;;;10.17;3.87;;;;;;;;;;5039360;28;20235;-78
2020/12/27 11:47:52;;;;;;;16.63;3.87;;;;;;;;;;5041144;28;20242;-78
2020/12/27 11:50:59;;;;;;;7.07;3.33;;;;;;;;;;5020782;28;20220;-78
2020/12/27 11:54:03;;;;;;;8.63;4.40;;;;;;;;;;5038343;28;20215;-78
2020/12/27 11:57:12;;;;;;;7.53;3.90;;;;;;;;;;5049726;28;20210;-78
2020/12/27 12:00:20;;;;;;;10.60;3.13;;;;;;;;;;5046235;28;20295;-78
2020/12/27 12:03:25;;;;;;;10.70;3.73;;;;;;;;;;5036354;28;20219;-77
2020/12/27 12:06:44;;;;;;;9.07;3.60;;;;;;;;;;5023403;28;20718;-78
2020/12/27 12:09:49;;;;;;;6.47;3.03;;;;;;;;;;5044212;28;20224;-79
2020/12/27 12:12:55;;;;;;;24.40;4.00;;;;;;;;;;5052123;28;20714;-79
2020/12/27 12:15:59;;;;;;;6.80;2.77;;;;;;;;;;5044610;28;20222;-78
2020/12/27 12:19:05;;;;;;;6.67;3.20;;;;;;;;;;5054758;28;20233;-79
2020/12/27 12:22:10;;;;;;;5.53;2.90;;;;;;;;;;5061999;28;20245;-78
2020/12/27 12:25:14;;;;;;;6.70;3.03;;;;;;;;;;5029847;28;20709;-79
2020/12/27 12:28:20;;;;;;;10.97;3.23;;;;;;;;;;5052665;28;20210;-78
2020/12/27 12:31:25;;;;;;;6.83;2.77;;;;;;;;;;5043008;28;20262;-78
2020/12/27 12:34:30;;;;;;;6.33;2.70;;;;;;;;;;5045940;28;20262;-79
2020/12/27 12:37:36;;;;;;;5.87;2.30;;;;;;;;;;5037633;28;20223;-79
2020/12/27 12:40:41;;;;;;;8.17;3.33;;;;;;;;;;5036589;28;20219;-78
2020/12/27 12:43:47;;;;;;;13.43;2.70;;;;;;;;;;5017910;28;20204;-79
2020/12/27 12:46:52;;;;;;;12.20;4.03;;;;;;;;;;5031748;28;20216;-79
2020/12/27 12:49:57;;;;;;;9.40;3.10;;;;;;;;;;5034379;28;20218;-79
2020/12/27 12:53:02;;;;;;;18.87;5.97;;;;;;;;;;5058103;28;20215;-78
2020/12/27 12:56:33;;;;;;;23.73;6.43;;;;;;;;;;5047236;28;20238;-80
2020/12/27 12:59:39;;;;;;;28.33;8.73;;;;;;;;;;5040052;28;20172;-76
2020/12/27 13:02:45;;;;;;;51.23;12.27;;;;;;;;;;5053808;28;20259;-78
2020/12/27 13:05:52;;;;;;;19.20;6.43;;;;;;;;;;5047171;28;20212;-78
2020/12/27 13:08:57;;;;;;;9.07;3.63;;;;;;;;;;5039850;28;20215;-78
2020/12/27 13:12:02;;;;;;;10.70;3.57;;;;;;;;;;5044715;28;20223;-77
2020/12/27 13:15:08;;;;;;;7.80;3.03;;;;;;;;;;5057718;28;20271;-76
2020/12/27 13:18:13;;;;;;;6.53;2.77;;;;;;;;;;5058116;28;20187;-76
2020/12/27 13:21:18;;;;;;;9.20;2.90;;;;;;;;;;5038116;28;20244;-77
2020/12/27 13:24:23;;;;;;;30.57;9.23;;;;;;;;;;5034438;28;20193;-77
2020/12/27 13:27:28;;;;;;;59.27;18.03;;;;;;;;;;5041735;28;20220;-79
2020/12/27 13:30:33;;;;;;;29.93;8.60;;;;;;;;;;5047890;28;20231;-76
2020/12/27 13:33:38;;;;;;;19.70;8.13;;;;;;;;;;5041495;28;20203;-78
2020/12/27 13:36:43;;;;;;;10.20;2.67;;;;;;;;;;5038140;28;20215;-79
2020/12/27 13:39:48;;;;;;;12.87;3.67;;;;;;;;;;5043099;28;20246;-77
2020/12/27 13:42:53;;;;;;;11.70;5.43;;;;;;;;;;5054523;28;20184;-78
2020/12/27 13:45:58;;;;;;;5.83;2.87;;;;;;;;;;5039549;28;20276;-77
2020/12/27 13:49:03;;;;;;;10.33;3.73;;;;;;;;;;5039041;28;20200;-78
2020/12/27 13:52:08;;;;;;;20.57;3.97;;;;;;;;;;5033905;28;20228;-77
2020/12/27 13:55:13;;;;;;;16.20;5.30;;;;;;;;;;5034573;28;20229;-76
2020/12/27 13:58:18;;;;;;;22.30;9.60;;;;;;;;;;5050270;28;20626;-76
2020/12/27 14:01:24;;;;;;;19.80;9.00;;;;;;;;;;5051820;28;20252;-78
2020/12/27 14:04:28;;;;;;;15.53;6.70;;;;;;;;;;5051323;28;20227;-76
2020/12/27 14:07:33;;;;;;;10.17;3.53;;;;;;;;;;5046979;28;20230;-79
2020/12/27 14:10:38;;;;;;;6.90;3.40;;;;;;;;;;5036821;28;20582;-79
2020/12/27 14:13:43;;;;;;;7.73;3.13;;;;;;;;;;5039707;28;20219;-79
2020/12/27 14:16:58;;;;;;;9.43;3.90;;;;;;;;;;5037138;28;20239;-78
2020/12/27 14:20:02;;;;;;;11.47;4.70;;;;;;;;;;5040100;28;20250;-79
2020/12/27 14:23:11;;;;;;;14.87;3.57;;;;;;;;;;5030598;28;20251;-78
2020/12/27 14:26:16;;;;;;;16.73;4.67;;;;;;;;;;5030157;28;20204;-79
2020/12/27 14:29:21;;;;;;;8.37;3.53;;;;;;;;;;5043981;28;20223;-77
2020/12/27 14:32:27;;;;;;;8.97;3.33;;;;;;;;;;5052427;28;20235;-77
2020/12/27 14:35:32;;;;;;;6.70;3.63;;;;;;;;;;5034991;28;20282;-78
2020/12/27 14:38:36;;;;;;;6.80;3.50;;;;;;;;;;5044054;28;20210;-79
2020/12/27 14:41:41;;;;;;;14.50;5.10;;;;;;;;;;5038578;28;20288;-78
2020/12/27 14:44:45;;;;;;;17.43;5.13;;;;;;;;;;5038009;28;20275;-79
2020/12/27 14:47:51;;;;;;;22.93;5.80;;;;;;;;;;5048988;28;20235;-80
2020/12/27 14:50:56;;;;;;;16.30;5.80;;;;;;;;;;5035785;28;20234;-77
2020/12/27 14:54:01;;;;;;;21.07;5.33;;;;;;;;;;5030683;28;20270;-77
2020/12/27 14:57:06;;;;;;;17.97;5.27;;;;;;;;;;5037791;28;20245;-76
2020/12/27 15:00:11;;;;;;;20.70;6.93;;;;;;;;;;5051298;28;20219;-77
2020/12/27 15:03:17;;;;;;;17.57;7.20;;;;;;;;;;5054122;28;20230;-78
2020/12/27 15:06:22;;;;;;;14.00;5.27;;;;;;;;;;5053998;28;20207;-77
2020/12/27 15:09:26;;;;;;;15.40;5.47;;;;;;;;;;5051016;28;20200;-77
2020/12/27 15:12:33;;;;;;;15.80;5.37;;;;;;;;;;5045026;28;20232;-78
2020/12/27 15:15:38;;;;;;;15.17;5.53;;;;;;;;;;5055670;28;20254;-78
2020/12/27 15:18:43;;;;;;;38.73;13.43;;;;;;;;;;5061818;28;20219;-77
2020/12/27 15:21:48;;;;;;;474.30;111.53;;;;;;;;;;5053353;28;20207;-77
2020/12/27 15:24:53;;;;;;;376.10;81.73;;;;;;;;;;5061244;28;20225;-77
2020/12/27 15:28:01;;;;;;;86.67;27.63;;;;;;;;;;5076535;28;20243;-77
2020/12/27 15:31:06;;;;;;;21.50;7.23;;;;;;;;;;5071139;28;20250;-79
2020/12/27 15:34:13;;;;;;;14.03;5.50;;;;;;;;;;5055989;28;20219;-80
2020/12/27 15:37:18;;;;;;;39.23;11.90;;;;;;;;;;5029872;28;20211;-80
2020/12/27 15:40:24;;;;;;;37.27;14.57;;;;;;;;;;5023634;28;20695;-80
2020/12/27 15:43:32;;;;;;;32.23;9.27;;;;;;;;;;5030169;28;20228;-80
2020/12/27 15:46:37;;;;;;;22.37;6.80;;;;;;;;;;5027350;28;20199;-79
2020/12/27 15:49:43;;;;;;;24.93;9.97;;;;;;;;;;5038039;28;20280;-80
2020/12/27 15:52:49;;;;;;;26.57;8.97;;;;;;;;;;5055665;28;20254;-81
2020/12/27 15:55:54;;;;;;;16.97;6.13;;;;;;;;;;5038261;28;20262;-79
2020/12/27 15:59:00;;;;;;;23.50;7.70;;;;;;;;;;5028860;28;20204;-81
2020/12/27 16:02:05;;;;;;;18.27;7.00;;;;;;;;;;5035873;28;20227;-79
2020/12/27 16:05:10;;;;;;;25.07;9.40;;;;;;;;;;5037785;28;20251;-81
2020/12/27 16:08:15;;;;;;;21.90;9.00;;;;;;;;;;5036679;28;20207;-80
2020/12/27 16:11:24;;;;;;;21.53;6.30;;;;;;;;;;5031696;28;20275;-81
2020/12/27 16:14:30;;;;;;;18.93;6.73;;;;;;;;;;5040739;28;20260;-81
2020/12/27 16:17:39;;;;;;;17.53;6.30;;;;;;;;;;5036187;28;20219;-80
2020/12/27 16:20:45;;;;;;;18.03;6.27;;;;;;;;;;5026447;28;20249;-81
2020/12/27 16:23:51;;;;;;;19.27;7.37;;;;;;;;;;5040617;28;20601;-81
2020/12/27 16:26:56;;;;;;;16.50;7.10;;;;;;;;;;5046344;28;20629;-80
2020/12/27 16:30:01;;;;;;;20.70;8.73;;;;;;;;;;5021813;28;20243;-80
2020/12/27 16:33:05;;;;;;;23.90;8.20;;;;;;;;;;5031387;28;20203;-80
2020/12/27 16:36:15;;;;;;;23.40;8.93;;;;;;;;;;5049580;28;20199;-79
2020/12/27 16:39:20;;;;;;;20.37;8.37;;;;;;;;;;5048156;28;20207;-78
2020/12/27 16:42:25;;;;;;;21.23;7.87;;;;;;;;;;5041482;28;20369;-77
2020/12/27 16:45:30;;;;;;;20.27;7.23;;;;;;;;;;5052795;28;20214;-78
2020/12/27 16:48:35;;;;;;;19.27;7.93;;;;;;;;;;5058767;28;20242;-77
2020/12/27 16:51:46;;;;;;;19.37;7.57;;;;;;;;;;5042027;28;20230;-78
2020/12/27 16:54:51;;;;;;;18.73;7.73;;;;;;;;;;5037452;28;20215;-79
2020/12/27 16:57:56;;;;;;;18.40;7.47;;;;;;;;;;5042013;28;20199;-78
2020/12/27 17:01:00;;;;;;;16.03;6.83;;;;;;;;;;5046757;28;20338;-79
2020/12/27 17:04:05;;;;;;;19.23;6.90;;;;;;;;;;5042101;28;20192;-81
2020/12/27 17:07:11;;;;;;;15.23;6.10;;;;;;;;;;5024453;28;20192;-78
2020/12/27 17:10:17;;;;;;;30.93;9.73;;;;;;;;;;5047454;28;20206;-78
2020/12/27 17:13:22;;;;;;;21.50;8.57;;;;;;;;;;5037471;28;20250;-78
2020/12/27 17:16:27;;;;;;;21.10;8.10;;;;;;;;;;5040075;28;20688;-78
2020/12/27 17:19:32;;;;;;;17.30;7.33;;;;;;;;;;5037665;28;20270;-78
2020/12/27 17:22:37;;;;;;;19.63;8.63;;;;;;;;;;5055086;28;20234;-78
2020/12/27 17:25:41;;;;;;;57.37;17.27;;;;;;;;;;5050459;28;20347;-78
2020/12/27 17:28:46;;;;;;;16.07;6.97;;;;;;;;;;5044366;28;20292;-77
2020/12/27 17:31:52;;;;;;;19.73;8.00;;;;;;;;;;5042092;28;20230;-78
2020/12/27 17:34:57;;;;;;;22.47;8.90;;;;;;;;;;5036040;28;20298;-77
2020/12/27 17:38:02;;;;;;;22.27;8.50;;;;;;;;;;5043890;28;20204;-77
2020/12/27 17:41:07;;;;;;;21.90;8.93;;;;;;;;;;5049314;28;20684;-77
2020/12/27 17:44:12;;;;;;;21.20;8.70;;;;;;;;;;5042859;28;20196;-77
2020/12/27 17:47:18;;;;;;;18.63;8.27;;;;;;;;;;5025511;28;20687;-77
2020/12/27 17:50:24;;;;;;;24.00;10.23;;;;;;;;;;5055160;28;20245;-77
2020/12/27 17:53:30;;;;;;;21.57;8.30;;;;;;;;;;5063111;28;20219;-76
2020/12/27 17:56:44;;;;;;;18.07;7.90;;;;;;;;;;5072692;28;20187;-77
2020/12/27 17:59:54;;;;;;;19.40;8.43;;;;;;;;;;5053379;28;20192;-79
2020/12/27 18:02:58;;;;;;;17.30;7.53;;;;;;;;;;5035223;28;20584;-78
2020/12/27 18:06:07;;;;;;;20.30;7.47;;;;;;;;;;5056938;28;20250;-78
2020/12/27 18:09:13;;;;;;;18.47;7.70;;;;;;;;;;5033599;28;20586;-78
2020/12/27 18:12:18;;;;;;;18.80;7.70;;;;;;;;;;5028777;28;20231;-78
2020/12/27 18:15:23;;;;;;;21.23;7.83;;;;;;;;;;5030875;28;20354;-79
2020/12/27 18:18:27;;;;;;;24.23;8.73;;;;;;;;;;5040754;28;20254;-79
2020/12/27 18:21:33;;;;;;;23.40;9.70;;;;;;;;;;5043355;28;20227;-78
2020/12/27 18:24:38;;;;;;;37.10;12.57;;;;;;;;;;5043587;28;20254;-79
2020/12/27 18:27:44;;;;;;;44.97;15.47;;;;;;;;;;5058329;28;20242;-80
2020/12/27 18:30:48;;;;;;;50.33;16.53;;;;;;;;;;5032351;28;20246;-79
2020/12/27 18:33:54;;;;;;;29.03;10.90;;;;;;;;;;5037224;28;20203;-78
2020/12/27 18:36:58;;;;;;;46.53;15.23;;;;;;;;;;5057294;28;20325;-78
2020/12/27 18:40:05;;;;;;;40.03;16.23;;;;;;;;;;5038493;28;20212;-78